Wetterdaten: Samstag, 21.02.2015
Datum Zeit Auen-Temp. Temp. -10 cm Luftfeuchte Luftfeuchte Luftdruck Regen Wind Richtung Richtung Taupunkt Windchill Windben
21.02.2015 00:00 -2,5 C 0,9 C 63 % 63 % 1010,4 hPa 0,0 l/m 2,4 km/h (1 Bft) SO 135 -8,6 C -4,4 C 1,8 km/h (1 Bft)
21.02.2015 00:05 -3,5 C 0,9 C 63 % 63 % 1010,4 hPa 0,0 l/m 2,3 km/h (1 Bft) SO 135 -9,5 C -4,3 C 0,0 km/h (0 Bft)
21.02.2015 00:10 -4,0 C 0,9 C 63 % 63 % 1010,4 hPa 0,0 l/m 0,3 km/h (0 Bft) W-SW 247 -10,0 C -4,9 C 1,8 km/h (1 Bft)
21.02.2015 00:15 -4,7 C 0,9 C 63 % 63 % 1010,2 hPa 0,0 l/m 0,2 km/h (0 Bft) SW 225 -10,6 C -5,3 C 0,0 km/h (0 Bft)
21.02.2015 00:20 -3,8 C 0,9 C 65 % 65 % 1010,2 hPa 0,0 l/m 0,5 km/h (0 Bft) S 180 -9,4 C -5,5 C 2,7 km/h (1 Bft)
21.02.2015 00:25 -2,2 C 0,9 C 65 % 65 % 1010,2 hPa 0,0 l/m 1,1 km/h (1 Bft) NW 315 -7,9 C -4,4 C 2,1 km/h (1 Bft)
21.02.2015 00:30 -1,7 C 0,9 C 64 % 64 % 1010,2 hPa 0,0 l/m 2,3 km/h (1 Bft) S-SO 157 -7,6 C -3,8 C 6,9 km/h (2 Bft)
21.02.2015 00:35 -1,4 C 0,9 C 62 % 62 % 1010,1 hPa 0,0 l/m 2,3 km/h (1 Bft) S-SO 157 -7,7 C -2,9 C 1,8 km/h (1 Bft)
21.02.2015 00:40 -2,0 C 0,9 C 61 % 61 % 1010,1 hPa 0,0 l/m 2,6 km/h (1 Bft) W-NW 292 -8,5 C -3,3 C 7,2 km/h (2 Bft)
21.02.2015 00:45 -4,0 C 0,9 C 60 % 60 % 1010,1 hPa 0,0 l/m 2,1 km/h (1 Bft) O-NO 67 -10,6 C -3,5 C 2,3 km/h (1 Bft)
21.02.2015 00:50 -4,1 C 0,9 C 62 % 62 % 1010,1 hPa 0,0 l/m 1,0 km/h (0 Bft) O-NO 67 -10,3 C -4,5 C 0,0 km/h (0 Bft)
21.02.2015 00:55 -4,3 C 0,9 C 63 % 63 % 1010,0 hPa 0,0 l/m 0,3 km/h (0 Bft) O-NO 67 -10,3 C -4,8 C 0,0 km/h (0 Bft)
21.02.2015 01:00 -4,6 C 0,9 C 64 % 64 % 1010,0 hPa 0,0 l/m 0,0 km/h (0 Bft) O-NO 67 -10,3 C -5,5 C 0,0 km/h (0 Bft)
21.02.2015 01:05 -3,8 C 0,9 C 64 % 64 % 1010,0 hPa 0,0 l/m 0,3 km/h (0 Bft) W 270 -9,6 C -5,2 C 1,8 km/h (1 Bft)
21.02.2015 01:10 -4,6 C 0,9 C 64 % 64 % 1010,0 hPa 0,0 l/m 0,5 km/h (0 Bft) S 180 -10,3 C -5,3 C 0,0 km/h (0 Bft)
21.02.2015 01:15 -4,8 C 0,9 C 65 % 65 % 1010,1 hPa 0,0 l/m 0,2 km/h (0 Bft) S 180 -10,3 C -5,6 C 0,0 km/h (0 Bft)
21.02.2015 01:20 -4,6 C 0,9 C 65 % 65 % 1010,1 hPa 0,0 l/m 0,2 km/h (0 Bft) W-SW 247 -10,2 C -5,8 C 0,0 km/h (0 Bft)
21.02.2015 01:25 -4,0 C 0,9 C 66 % 66 % 1010,1 hPa 0,0 l/m 0,3 km/h (0 Bft) S-SO 157 -9,4 C -5,9 C 2,4 km/h (1 Bft)
21.02.2015 01:30 -1,6 C 0,9 C 65 % 65 % 1010,1 hPa 0,0 l/m 1,3 km/h (1 Bft) W-SW 247 -7,3 C -4,4 C 2,3 km/h (1 Bft)
21.02.2015 01:35 -1,2 C 0,9 C 64 % 64 % 1009,8 hPa 0,0 l/m 2,4 km/h (1 Bft) S 180 -7,1 C -3,9 C 4,8 km/h (1 Bft)
21.02.2015 01:40 0,3 C 0,9 C 59 % 59 % 1009,8 hPa 0,0 l/m 3,9 km/h (1 Bft) S 180 -6,8 C -2,9 C 10,0 km/h (2 Bft)
21.02.2015 01:45 0,4 C 1,0 C 57 % 57 % 1009,8 hPa 0,0 l/m 4,7 km/h (1 Bft) S 180 -7,1 C -2,6 C 4,8 km/h (1 Bft)
21.02.2015 01:50 0,8 C 1,0 C 56 % 56 % 1009,8 hPa 0,0 l/m 5,0 km/h (1 Bft) S-SW 202 -7,0 C -1,9 C 6,0 km/h (2 Bft)
21.02.2015 01:55 0,6 C 1,0 C 55 % 55 % 1009,5 hPa 0,0 l/m 5,0 km/h (1 Bft) S-SW 202 -7,4 C -1,7 C 8,9 km/h (2 Bft)
21.02.2015 02:00 1,0 C 1,0 C 54 % 54 % 1009,5 hPa 0,0 l/m 4,7 km/h (1 Bft) SW 225 -7,2 C -1,4 C 4,5 km/h (1 Bft)
21.02.2015 02:05 1,1 C 1,0 C 53 % 53 % 1009,5 hPa 0,0 l/m 4,8 km/h (1 Bft) SO 135 -7,4 C -1,2 C 5,5 km/h (1 Bft)
21.02.2015 02:10 0,0 C 0,9 C 52 % 52 % 1009,5 hPa 0,0 l/m 3,5 km/h (1 Bft) W-SW 247 -8,7 C -0,8 C 3,4 km/h (1 Bft)
21.02.2015 02:15 -2,6 C 1,0 C 53 % 53 % 1009,2 hPa 0,0 l/m 1,9 km/h (1 Bft) SW 225 -10,8 C -1,2 C 2,1 km/h (1 Bft)
21.02.2015 02:20 -3,5 C 0,9 C 55 % 55 % 1009,2 hPa 0,0 l/m 0,8 km/h (0 Bft) S-SO 157 -11,2 C -2,9 C 2,4 km/h (1 Bft)
21.02.2015 02:25 -1,1 C 1,0 C 57 % 57 % 1009,2 hPa 0,0 l/m 2,9 km/h (1 Bft) S 180 -8,5 C -3,7 C 9,5 km/h (2 Bft)
21.02.2015 02:30 -0,9 C 1,0 C 56 % 56 % 1009,2 hPa 0,0 l/m 5,0 km/h (1 Bft) S 180 -8,5 C -3,8 C 2,4 km/h (1 Bft)
21.02.2015 02:35 -1,1 C 1,0 C 56 % 56 % 1009,2 hPa 0,0 l/m 4,0 km/h (1 Bft) SW 225 -8,7 C -3,4 C 3,4 km/h (1 Bft)
21.02.2015 02:40 -1,0 C 1,0 C 56 % 56 % 1009,2 hPa 0,0 l/m 2,3 km/h (1 Bft) S 180 -8,6 C -2,3 C 5,6 km/h (1 Bft)
21.02.2015 02:45 -1,2 C 1,0 C 55 % 55 % 1009,2 hPa 0,0 l/m 2,1 km/h (1 Bft) SO 135 -9,1 C -2,3 C 4,7 km/h (1 Bft)
21.02.2015 02:50 -0,8 C 1,0 C 56 % 56 % 1009,2 hPa 0,0 l/m 2,4 km/h (1 Bft) S 180 -8,5 C -2,4 C 3,4 km/h (1 Bft)
21.02.2015 02:55 -1,7 C 1,0 C 55 % 55 % 1008,9 hPa 0,0 l/m 2,4 km/h (1 Bft) SO 135 -9,5 C -2,3 C 0,0 km/h (0 Bft)
21.02.2015 03:00 -2,2 C 1,0 C 56 % 56 % 1008,9 hPa 0,0 l/m 1,9 km/h (1 Bft) S-SO 157 -9,8 C -3,1 C 2,4 km/h (1 Bft)
21.02.2015 03:05 -1,8 C 1,0 C 56 % 56 % 1008,9 hPa 0,0 l/m 1,8 km/h (1 Bft) S 180 -9,4 C -3,1 C 1,9 km/h (1 Bft)
21.02.2015 03:10 -1,3 C 1,0 C 56 % 56 % 1008,9 hPa 0,0 l/m 2,3 km/h (1 Bft) S-SO 157 -8,9 C -2,8 C 0,0 km/h (0 Bft)
21.02.2015 03:15 -1,1 C 1,0 C 56 % 56 % 1008,6 hPa 0,0 l/m 2,7 km/h (1 Bft) S-SO 157 -8,7 C -3,1 C 1,9 km/h (1 Bft)
21.02.2015 03:20 -2,6 C 0,9 C 56 % 56 % 1008,6 hPa 0,0 l/m 1,8 km/h (1 Bft) SO 135 -10,1 C -3,0 C 2,3 km/h (1 Bft)
21.02.2015 03:25 -2,7 C 0,9 C 57 % 57 % 1008,6 hPa 0,0 l/m 1,4 km/h (1 Bft) SW 225 -10,0 C -3,4 C 1,8 km/h (1 Bft)
21.02.2015 03:30 -3,4 C 0,9 C 57 % 57 % 1008,6 hPa 0,0 l/m 1,1 km/h (1 Bft) SO 135 -10,7 C -3,7 C 0,0 km/h (0 Bft)
21.02.2015 03:35 -3,5 C 0,9 C 58 % 58 % 1008,3 hPa 0,0 l/m 1,0 km/h (0 Bft) SO 135 -10,5 C -4,3 C 2,9 km/h (1 Bft)
21.02.2015 03:40 -2,1 C 0,9 C 59 % 59 % 1008,3 hPa 0,0 l/m 1,6 km/h (1 Bft) S-SO 157 -9,0 C -3,8 C 4,5 km/h (1 Bft)
21.02.2015 03:45 -2,8 C 0,9 C 58 % 58 % 1008,3 hPa 0,0 l/m 1,8 km/h (1 Bft) SO 135 -9,9 C -3,7 C 2,3 km/h (1 Bft)
21.02.2015 03:50 -3,6 C 0,9 C 58 % 58 % 1008,3 hPa 0,0 l/m 1,0 km/h (0 Bft) S-SO 157 -10,6 C -4,2 C 0,0 km/h (0 Bft)
21.02.2015 03:55 -4,2 C 0,9 C 59 % 59 % 1007,9 hPa 0,0 l/m 0,8 km/h (0 Bft) S-SO 157 -11,0 C -4,6 C 1,8 km/h (1 Bft)
21.02.2015 04:00 -4,2 C 0,9 C 59 % 59 % 1007,9 hPa 0,0 l/m 0,8 km/h (0 Bft) SO 135 -11,0 C -4,9 C 0,0 km/h (0 Bft)
21.02.2015 04:05 -4,6 C 0,9 C 59 % 59 % 1007,9 hPa 0,0 l/m 0,5 km/h (0 Bft) SO 135 -11,4 C -5,3 C 2,3 km/h (1 Bft)
21.02.2015 04:10 -4,8 C 0,9 C 60 % 60 % 1007,9 hPa 0,0 l/m 0,2 km/h (0 Bft) SO 135 -11,3 C -5,8 C 1,9 km/h (1 Bft)
21.02.2015 04:15 -4,5 C 0,9 C 62 % 62 % 1007,9 hPa 0,0 l/m 0,6 km/h (0 Bft) SO 135 -10,7 C -5,9 C 2,3 km/h (1 Bft)
21.02.2015 04:20 -4,3 C 0,9 C 62 % 62 % 1007,9 hPa 0,0 l/m 1,1 km/h (1 Bft) SO 135 -10,5 C -5,8 C 1,6 km/h (1 Bft)
21.02.2015 04:25 -4,0 C 0,9 C 63 % 63 % 1007,9 hPa 0,0 l/m 1,4 km/h (1 Bft) SO 135 -10,0 C -5,8 C 3,9 km/h (1 Bft)
21.02.2015 04:30 -3,4 C 0,9 C 63 % 63 % 1007,9 hPa 0,0 l/m 2,9 km/h (1 Bft) SO 135 -9,4 C -5,9 C 4,8 km/h (1 Bft)
21.02.2015 04:35 -3,6 C 0,9 C 64 % 64 % 1007,6 hPa 0,0 l/m 3,4 km/h (1 Bft) SO 135 -9,4 C -5,9 C 2,4 km/h (1 Bft)
21.02.2015 04:40 -3,2 C 0,9 C 64 % 64 % 1007,6 hPa 0,0 l/m 3,7 km/h (1 Bft) SO 135 -9,0 C -6,0 C 3,9 km/h (1 Bft)
21.02.2015 04:45 -4,0 C 0,9 C 63 % 63 % 1007,6 hPa 0,0 l/m 3,2 km/h (1 Bft) O-SO 112 -10,0 C -5,6 C 0,0 km/h (0 Bft)
21.02.2015 04:50 -4,2 C 0,9 C 64 % 64 % 1007,6 hPa 0,0 l/m 2,3 km/h (1 Bft) SO 135 -10,0 C -5,1 C 4,2 km/h (1 Bft)
21.02.2015 04:55 -4,1 C 0,9 C 64 % 64 % 1007,6 hPa 0,0 l/m 2,3 km/h (1 Bft) O 90 -9,9 C -5,0 C 0,0 km/h (0 Bft)
21.02.2015 05:00 -5,0 C 0,9 C 64 % 64 % 1007,6 hPa 0,0 l/m 1,3 km/h (1 Bft) O-SO 112 -10,7 C -5,4 C 0,0 km/h (0 Bft)
21.02.2015 05:05 -5,5 C 0,9 C 64 % 64 % 1007,6 hPa 0,0 l/m 0,0 km/h (0 Bft) O-SO 112 -11,2 C -5,9 C 0,0 km/h (0 Bft)
21.02.2015 05:10 -5,5 C 0,9 C 65 % 65 % 1007,6 hPa 0,0 l/m 0,0 km/h (0 Bft) O-SO 112 -11,0 C -6,3 C 0,0 km/h (0 Bft)
21.02.2015 05:15 -5,4 C 1,0 C 65 % 65 % 1007,8 hPa 0,0 l/m 0,2 km/h (0 Bft) O-SO 112 -10,9 C -6,5 C 0,0 km/h (0 Bft)
21.02.2015 05:20 -4,9 C 1,0 C 66 % 66 % 1007,8 hPa 0,0 l/m 1,0 km/h (0 Bft) NW 315 -10,2 C -6,4 C 3,7 km/h (1 Bft)
21.02.2015 05:25 -5,3 C 1,0 C 66 % 66 % 1007,8 hPa 0,0 l/m 0,8 km/h (0 Bft) N-NW 337 -10,6 C -6,2 C 0,0 km/h (0 Bft)
21.02.2015 05:30 -5,7 C 1,0 C 67 % 67 % 1007,8 hPa 0,0 l/m 0,6 km/h (0 Bft) N-NW 337 -10,8 C -6,5 C 0,0 km/h (0 Bft)
21.02.2015 05:35 -5,7 C 1,0 C 67 % 67 % 1007,6 hPa 0,0 l/m 0,2 km/h (0 Bft) N-NW 337 -10,8 C -6,6 C 0,0 km/h (0 Bft)
21.02.2015 05:40 -5,8 C 1,0 C 67 % 67 % 1007,6 hPa 0,0 l/m 0,0 km/h (0 Bft) N-NW 337 -10,9 C -6,8 C 0,0 km/h (0 Bft)
21.02.2015 05:45 -5,7 C 1,0 C 68 % 68 % 1007,6 hPa 0,0 l/m 0,2 km/h (0 Bft) NW 315 -10,6 C -6,8 C 0,0 km/h (0 Bft)
21.02.2015 05:50 -6,0 C 1,0 C 68 % 68 % 1007,6 hPa 0,0 l/m 1,0 km/h (0 Bft) W 270 -10,9 C -7,1 C 0,0 km/h (0 Bft)
21.02.2015 05:55 -6,4 C 1,0 C 68 % 68 % 1007,2 hPa 0,0 l/m 0,8 km/h (0 Bft) W-NW 292 -11,3 C -7,3 C 0,0 km/h (0 Bft)
21.02.2015 06:00 -6,8 C 1,0 C 68 % 68 % 1007,2 hPa 0,0 l/m 0,2 km/h (0 Bft) W-NW 292 -11,7 C -7,5 C 0,0 km/h (0 Bft)
21.02.2015 06:05 -6,9 C 1,0 C 68 % 68 % 1007,2 hPa 0,0 l/m 0,0 km/h (0 Bft) W-NW 292 -11,8 C -7,6 C 0,0 km/h (0 Bft)
21.02.2015 06:10 -6,8 C 1,0 C 68 % 68 % 1007,2 hPa 0,0 l/m 0,3 km/h (0 Bft) S-SW 202 -11,7 C -8,1 C 1,6 km/h (1 Bft)
21.02.2015 06:15 -6,3 C 1,0 C 69 % 69 % 1007,1 hPa 0,0 l/m 0,3 km/h (0 Bft) S-SW 202 -11,0 C -7,8 C 0,0 km/h (0 Bft)
21.02.2015 06:20 -5,8 C 1,0 C 69 % 69 % 1007,1 hPa 0,0 l/m 1,0 km/h (0 Bft) S 180 -10,6 C -7,3 C 0,0 km/h (0 Bft)
21.02.2015 06:25 -6,6 C 1,0 C 69 % 69 % 1007,1 hPa 0,0 l/m 0,6 km/h (0 Bft) S 180 -11,3 C -7,3 C 0,0 km/h (0 Bft)
21.02.2015 06:30 -6,6 C 1,0 C 69 % 69 % 1007,1 hPa 0,0 l/m 0,2 km/h (0 Bft) W-SW 247 -11,3 C -7,6 C 0,0 km/h (0 Bft)
21.02.2015 06:35 -6,9 C 1,0 C 69 % 69 % 1007,0 hPa 0,0 l/m 0,2 km/h (0 Bft) W-SW 247 -11,6 C -7,8 C 0,0 km/h (0 Bft)
21.02.2015 06:40 -6,9 C 1,0 C 70 % 70 % 1007,0 hPa 0,0 l/m 0,0 km/h (0 Bft) W-SW 247 -11,4 C -8,0 C 0,0 km/h (0 Bft)
21.02.2015 06:45 -6,3 C 1,0 C 71 % 71 % 1007,0 hPa 0,0 l/m 0,2 km/h (0 Bft) S 180 -10,7 C -7,8 C 1,6 km/h (1 Bft)
21.02.2015 06:50 -6,8 C 1,0 C 70 % 70 % 1007,0 hPa 0,0 l/m 0,3 km/h (0 Bft) SO 135 -11,3 C -7,8 C 0,0 km/h (0 Bft)
21.02.2015 06:55 -7,4 C 0,9 C 70 % 70 % 1007,0 hPa 0,0 l/m 0,2 km/h (0 Bft) SO 135 -11,9 C -8,0 C 0,0 km/h (0 Bft)
21.02.2015 07:00 -6,5 C 0,9 C 71 % 71 % 1007,0 hPa 0,0 l/m 0,5 km/h (0 Bft) SO 135 -10,9 C -8,1 C 0,0 km/h (0 Bft)
21.02.2015 07:05 -6,1 C 1,0 C 71 % 71 % 1007,0 hPa 0,0 l/m 1,1 km/h (1 Bft) SO 135 -10,5 C -7,6 C 3,9 km/h (1 Bft)
21.02.2015 07:10 -6,5 C 1,0 C 71 % 71 % 1007,0 hPa 0,0 l/m 1,4 km/h (1 Bft) O-NO 67 -10,9 C -7,1 C 0,0 km/h (0 Bft)
21.02.2015 07:15 -6,4 C 1,0 C 71 % 71 % 1006,8 hPa 0,0 l/m 1,1 km/h (1 Bft) SW 225 -10,8 C -7,2 C 0,0 km/h (0 Bft)
21.02.2015 07:20 -6,9 C 1,0 C 71 % 71 % 1006,8 hPa 0,0 l/m 0,6 km/h (0 Bft) O-SO 112 -11,2 C -7,2 C 0,0 km/h (0 Bft)
21.02.2015 07:25 -7,3 C 1,0 C 71 % 71 % 1006,8 hPa 0,0 l/m 0,3 km/h (0 Bft) O-SO 112 -11,6 C -7,5 C 0,0 km/h (0 Bft)
21.02.2015 07:30 -7,2 C 0,9 C 71 % 71 % 1006,8 hPa 0,0 l/m 0,0 km/h (0 Bft) O-SO 112 -11,5 C -7,7 C 0,0 km/h (0 Bft)
21.02.2015 07:35 -7,2 C 0,9 C 71 % 71 % 1006,4 hPa 0,0 l/m 0,0 km/h (0 Bft) O-SO 112 -11,5 C -7,8 C 0,0 km/h (0 Bft)
21.02.2015 07:40 -7,2 C 0,9 C 71 % 71 % 1006,4 hPa 0,0 l/m 0,0 km/h (0 Bft) O-SO 112 -11,5 C -7,8 C 0,0 km/h (0 Bft)
21.02.2015 07:45 -7,2 C 1,0 C 71 % 71 % 1006,4 hPa 0,0 l/m 0,0 km/h (0 Bft) O-SO 112 -11,5 C -7,7 C 0,0 km/h (0 Bft)
21.02.2015 07:50 -6,9 C 1,0 C 71 % 71 % 1006,4 hPa 0,0 l/m 0,0 km/h (0 Bft) O-SO 112 -11,2 C -7,5 C 0,0 km/h (0 Bft)
21.02.2015 07:55 -7,0 C 1,0 C 71 % 71 % 1006,1 hPa 0,0 l/m 0,0 km/h (0 Bft) O-SO 112 -11,3 C -7,4 C 0,0 km/h (0 Bft)
21.02.2015 08:00 -6,5 C 1,0 C 72 % 72 % 1006,1 hPa 0,0 l/m 0,0 km/h (0 Bft) SO 135 -10,7 C -7,2 C 0,0 km/h (0 Bft)
21.02.2015 08:05 -6,5 C 1,0 C 72 % 72 % 1006,1 hPa 0,0 l/m 0,0 km/h (0 Bft) SO 135 -10,7 C -7,0 C 0,0 km/h (0 Bft)
21.02.2015 08:10 -6,2 C 1,0 C 72 % 72 % 1006,1 hPa 0,0 l/m 0,0 km/h (0 Bft) SO 135 -10,4 C -6,6 C 0,0 km/h (0 Bft)
21.02.2015 08:15 -6,4 C 1,0 C 71 % 71 % 1006,2 hPa 0,0 l/m 0,0 km/h (0 Bft) S 180 -10,8 C -6,5 C 0,0 km/h (0 Bft)
21.02.2015 08:20 -6,0 C 1,0 C 71 % 71 % 1006,2 hPa 0,0 l/m 0,0 km/h (0 Bft) O-SO 112 -10,4 C -6,3 C 0,0 km/h (0 Bft)
21.02.2015 08:25 -5,5 C 0,9 C 72 % 72 % 1006,2 hPa 0,0 l/m 0,2 km/h (0 Bft) S-SO 157 -9,7 C -5,9 C 2,6 km/h (1 Bft)
21.02.2015 08:30 -4,2 C 0,9 C 72 % 72 % 1006,2 hPa 0,0 l/m 1,3 km/h (1 Bft) W 270 -8,5 C -4,6 C 3,4 km/h (1 Bft)
21.02.2015 08:35 -4,7 C 0,9 C 71 % 71 % 1006,2 hPa 0,0 l/m 1,4 km/h (1 Bft) NW 315 -9,1 C -4,2 C 0,0 km/h (0 Bft)
21.02.2015 08:40 -4,4 C 0,9 C 71 % 71 % 1006,2 hPa 0,0 l/m 0,3 km/h (0 Bft) NW 315 -8,8 C -4,0 C 0,0 km/h (0 Bft)
21.02.2015 08:45 -4,2 C 0,9 C 71 % 71 % 1006,2 hPa 0,0 l/m 0,0 km/h (0 Bft) NW 315 -8,7 C -3,9 C 0,0 km/h (0 Bft)
21.02.2015 08:50 -3,2 C 0,9 C 71 % 71 % 1006,2 hPa 0,0 l/m 0,8 km/h (0 Bft) SO 135 -7,7 C -3,2 C 0,0 km/h (0 Bft)
21.02.2015 08:55 -3,3 C 0,9 C 70 % 70 % 1006,2 hPa 0,0 l/m 0,8 km/h (0 Bft) S-SO 157 -8,0 C -2,8 C 0,0 km/h (0 Bft)
21.02.2015 09:00 -2,8 C 0,9 C 70 % 70 % 1006,2 hPa 0,0 l/m 0,0 km/h (0 Bft) S-SO 157 -7,5 C -2,4 C 0,0 km/h (0 Bft)
21.02.2015 09:05 -2,5 C 0,9 C 69 % 69 % 1006,2 hPa 0,0 l/m 0,0 km/h (0 Bft) S-SO 157 -7,4 C -1,9 C 0,0 km/h (0 Bft)
21.02.2015 09:10 -1,9 C 1,0 C 68 % 68 % 1006,2 hPa 0,0 l/m 0,2 km/h (0 Bft) O 90 -7,0 C -1,5 C 0,0 km/h (0 Bft)
21.02.2015 09:15 -1,3 C 1,0 C 68 % 68 % 1006,1 hPa 0,0 l/m 0,2 km/h (0 Bft) O 90 -6,4 C -1,0 C 0,0 km/h (0 Bft)
21.02.2015 09:20 -0,3 C 0,9 C 68 % 68 % 1006,1 hPa 0,0 l/m 0,0 km/h (0 Bft) O 90 -5,5 C 0,1 C 0,0 km/h (0 Bft)
21.02.2015 09:25 0,0 C 0,9 C 67 % 67 % 1006,1 hPa 0,0 l/m 0,0 km/h (0 Bft) O 90 -5,4 C 0,9 C 0,0 km/h (0 Bft)
21.02.2015 09:30 0,3 C 0,9 C 66 % 66 % 1006,1 hPa 0,0 l/m 0,0 km/h (0 Bft) O 90 -5,3 C 1,7 C 0,0 km/h (0 Bft)
21.02.2015 09:35 0,2 C 0,9 C 65 % 65 % 1005,9 hPa 0,0 l/m 0,2 km/h (0 Bft) S-SO 157 -5,6 C 1,9 C 0,0 km/h (0 Bft)
21.02.2015 09:40 0,2 C 0,9 C 64 % 64 % 1005,9 hPa 0,0 l/m 0,8 km/h (0 Bft) W-SW 247 -5,8 C 2,0 C 3,9 km/h (1 Bft)
21.02.2015 09:45 0,2 C 0,9 C 63 % 63 % 1005,9 hPa 0,0 l/m 0,8 km/h (0 Bft) W-SW 247 -6,0 C 1,9 C 0,0 km/h (0 Bft)
21.02.2015 09:50 0,7 C 0,9 C 63 % 63 % 1005,9 hPa 0,0 l/m 1,0 km/h (0 Bft) W 270 -5,5 C 1,9 C 1,6 km/h (1 Bft)
21.02.2015 09:55 0,5 C 0,9 C 62 % 62 % 1005,7 hPa 0,0 l/m 0,8 km/h (0 Bft) W 270 -5,9 C 1,9 C 0,0 km/h (0 Bft)
21.02.2015 10:00 1,0 C 0,9 C 62 % 62 % 1005,7 hPa 0,0 l/m 0,5 km/h (0 Bft) W 270 -5,4 C 2,0 C 0,0 km/h (0 Bft)
21.02.2015 10:05 1,1 C 0,9 C 62 % 62 % 1005,7 hPa 0,0 l/m 0,3 km/h (0 Bft) W 270 -5,3 C 2,2 C 2,1 km/h (1 Bft)
21.02.2015 10:10 1,2 C 0,9 C 61 % 61 % 1005,7 hPa 0,0 l/m 1,1 km/h (1 Bft) W 270 -5,5 C 2,1 C 0,0 km/h (0 Bft)
21.02.2015 10:15 1,2 C 0,9 C 61 % 61 % 1005,6 hPa 0,0 l/m 1,0 km/h (0 Bft) W 270 -5,5 C 2,1 C 0,0 km/h (0 Bft)
21.02.2015 10:20 2,0 C 0,9 C 61 % 61 % 1005,6 hPa 0,0 l/m 0,2 km/h (0 Bft) W 270 -4,7 C 2,6 C 0,0 km/h (0 Bft)
21.02.2015 10:25 2,1 C 0,9 C 61 % 61 % 1005,6 hPa 0,0 l/m 0,2 km/h (0 Bft) W 270 -4,6 C 3,1 C 0,0 km/h (0 Bft)
21.02.2015 10:30 2,1 C 1,0 C 60 % 60 % 1005,6 hPa 0,0 l/m 0,0 km/h (0 Bft) W 270 -4,8 C 4,1 C 0,0 km/h (0 Bft)
21.02.2015 10:35 2,1 C 1,0 C 59 % 59 % 1005,1 hPa 0,0 l/m 0,0 km/h (0 Bft) W 270 -5,1 C 4,6 C 0,0 km/h (0 Bft)
21.02.2015 10:40 2,1 C 1,0 C 59 % 59 % 1005,1 hPa 0,0 l/m 0,5 km/h (0 Bft) W 270 -5,1 C 5,2 C 0,0 km/h (0 Bft)
21.02.2015 10:45 2,1 C 1,0 C 59 % 59 % 1005,1 hPa 0,0 l/m 0,5 km/h (0 Bft) W 270 -5,1 C 5,7 C 0,0 km/h (0 Bft)
21.02.2015 10:50 5,7 C 0,9 C 59 % 59 % 1005,1 hPa 0,0 l/m 0,0 km/h (0 Bft) W 270 -1,7 C 6,8 C 0,0 km/h (0 Bft)
21.02.2015 10:55 5,7 C 0,9 C 59 % 59 % 1004,9 hPa 0,0 l/m 0,0 km/h (0 Bft) W 270 -1,7 C 7,4 C 0,0 km/h (0 Bft)
21.02.2015 11:00 6,6 C 0,9 C 58 % 58 % 1004,9 hPa 0,0 l/m 0,0 km/h (0 Bft) W 270 -1,1 C 8,2 C 0,0 km/h (0 Bft)
21.02.2015 11:05 6,0 C 0,9 C 56 % 56 % 1004,9 hPa 0,0 l/m 0,5 km/h (0 Bft) W 270 -2,1 C 8,5 C 0,0 km/h (0 Bft)
21.02.2015 11:10 6,3 C 0,9 C 56 % 56 % 1004,9 hPa 0,0 l/m 0,6 km/h (0 Bft) W 270 -1,8 C 8,4 C 0,0 km/h (0 Bft)
21.02.2015 11:15 6,4 C 0,9 C 56 % 56 % 1004,9 hPa 0,0 l/m 0,0 km/h (0 Bft) W 270 -1,7 C 8,3 C 0,0 km/h (0 Bft)
21.02.2015 11:20 6,9 C 1,0 C 56 % 56 % 1004,9 hPa 0,0 l/m 0,0 km/h (0 Bft) W 270 -1,3 C 8,7 C 0,0 km/h (0 Bft)
21.02.2015 11:25 6,8 C 1,0 C 55 % 55 % 1004,9 hPa 0,0 l/m 0,0 km/h (0 Bft) W 270 -1,6 C 9,0 C 0,0 km/h (0 Bft)
21.02.2015 11:30 6,8 C 1,0 C 54 % 54 % 1004,9 hPa 0,0 l/m 0,2 km/h (0 Bft) W 270 -1,8 C 9,2 C 2,1 km/h (1 Bft)
21.02.2015 11:35 6,6 C 1,0 C 54 % 54 % 1004,5 hPa 0,0 l/m 0,3 km/h (0 Bft) W 270 -2,0 C 9,1 C 0,0 km/h (0 Bft)
21.02.2015 11:40 7,3 C 1,0 C 55 % 55 % 1004,5 hPa 0,0 l/m 0,3 km/h (0 Bft) W 270 -1,1 C 9,2 C 0,0 km/h (0 Bft)
21.02.2015 11:45 7,2 C 1,0 C 54 % 54 % 1004,5 hPa 0,0 l/m 0,0 km/h (0 Bft) W 270 -1,5 C 9,4 C 0,0 km/h (0 Bft)
21.02.2015 11:50 7,3 C 1,0 C 53 % 53 % 1004,5 hPa 0,0 l/m 0,2 km/h (0 Bft) W 270 -1,6 C 9,5 C 1,6 km/h (1 Bft)
21.02.2015 11:55 7,0 C 1,0 C 51 % 51 % 1004,2 hPa 0,0 l/m 1,1 km/h (1 Bft) W 270 -2,4 C 9,5 C 3,2 km/h (1 Bft)
21.02.2015 12:00 7,1 C 1,0 C 49 % 49 % 1004,2 hPa 0,0 l/m 1,6 km/h (1 Bft) W-SW 247 -2,9 C 9,1 C 1,8 km/h (1 Bft)
21.02.2015 12:05 7,2 C 1,0 C 49 % 49 % 1004,2 hPa 0,0 l/m 1,4 km/h (1 Bft) W-SW 247 -2,8 C 9,1 C 1,6 km/h (1 Bft)
21.02.2015 12:10 6,9 C 1,0 C 51 % 51 % 1004,2 hPa 0,0 l/m 1,3 km/h (1 Bft) W-SW 247 -2,5 C 9,0 C 2,3 km/h (1 Bft)
21.02.2015 12:15 7,0 C 1,0 C 51 % 51 % 1003,9 hPa 0,0 l/m 1,4 km/h (1 Bft) W-SW 247 -2,4 C 9,1 C 0,0 km/h (0 Bft)
21.02.2015 12:20 7,5 C 1,0 C 51 % 51 % 1003,9 hPa 0,0 l/m 0,8 km/h (0 Bft) W 270 -2,0 C 9,3 C 2,7 km/h (1 Bft)
21.02.2015 12:25 7,0 C 1,0 C 49 % 49 % 1003,9 hPa 0,0 l/m 1,1 km/h (1 Bft) W-SW 247 -3,0 C 9,2 C 5,0 km/h (1 Bft)
21.02.2015 12:30 7,6 C 1,0 C 49 % 49 % 1003,9 hPa 0,0 l/m 1,4 km/h (1 Bft) W-SW 247 -2,4 C 9,1 C 0,0 km/h (0 Bft)
21.02.2015 12:35 8,1 C 1,0 C 49 % 49 % 1003,6 hPa 0,0 l/m 1,0 km/h (0 Bft) SW 225 -2,0 C 9,3 C 2,3 km/h (1 Bft)
21.02.2015 12:40 7,2 C 1,0 C 49 % 49 % 1003,6 hPa 0,0 l/m 1,4 km/h (1 Bft) W-SW 247 -2,8 C 9,1 C 2,6 km/h (1 Bft)
21.02.2015 12:45 6,8 C 1,0 C 50 % 50 % 1003,6 hPa 0,0 l/m 2,3 km/h (1 Bft) W 270 -2,9 C 8,9 C 4,2 km/h (1 Bft)
21.02.2015 12:50 7,4 C 1,0 C 51 % 51 % 1003,6 hPa 0,0 l/m 1,6 km/h (1 Bft) W-SW 247 -2,1 C 8,9 C 0,0 km/h (0 Bft)
21.02.2015 12:55 7,9 C 1,0 C 50 % 50 % 1003,2 hPa 0,0 l/m 0,8 km/h (0 Bft) SW 225 -1,9 C 9,1 C 1,9 km/h (1 Bft)
21.02.2015 13:00 7,8 C 1,0 C 51 % 51 % 1003,2 hPa 0,0 l/m 0,5 km/h (0 Bft) W-SW 247 -1,7 C 9,4 C 2,9 km/h (1 Bft)
21.02.2015 13:05 7,7 C 1,0 C 50 % 50 % 1003,2 hPa 0,0 l/m 1,3 km/h (1 Bft) W-SW 247 -2,1 C 9,5 C 2,3 km/h (1 Bft)
21.02.2015 13:10 8,0 C 1,0 C 49 % 49 % 1003,2 hPa 0,0 l/m 2,1 km/h (1 Bft) S-SW 202 -2,0 C 9,7 C 2,7 km/h (1 Bft)
21.02.2015 13:15 7,8 C 1,0 C 49 % 49 % 1003,0 hPa 0,0 l/m 2,4 km/h (1 Bft) W 270 -2,2 C 9,8 C 2,4 km/h (1 Bft)
21.02.2015 13:20 8,2 C 1,0 C 48 % 48 % 1003,0 hPa 0,0 l/m 2,3 km/h (1 Bft) SW 225 -2,1 C 10,1 C 3,5 km/h (1 Bft)
21.02.2015 13:25 8,2 C 1,0 C 48 % 48 % 1003,0 hPa 0,0 l/m 1,9 km/h (1 Bft) W-SW 247 -2,1 C 10,1 C 3,4 km/h (1 Bft)
21.02.2015 13:30 8,0 C 1,0 C 49 % 49 % 1003,0 hPa 0,0 l/m 1,8 km/h (1 Bft) W 270 -2,0 C 10,1 C 3,9 km/h (1 Bft)
21.02.2015 13:35 8,0 C 1,0 C 49 % 49 % 1002,9 hPa 0,0 l/m 1,8 km/h (1 Bft) W 270 -2,0 C 10,0 C 2,9 km/h (1 Bft)
21.02.2015 13:40 7,9 C 1,0 C 49 % 49 % 1002,9 hPa 0,0 l/m 1,8 km/h (1 Bft) W 270 -2,1 C 9,9 C 0,0 km/h (0 Bft)
21.02.2015 13:45 8,2 C 1,0 C 48 % 48 % 1002,9 hPa 0,0 l/m 1,8 km/h (1 Bft) W-SW 247 -2,1 C 9,9 C 3,5 km/h (1 Bft)
21.02.2015 13:50 8,0 C 1,0 C 48 % 48 % 1002,9 hPa 0,0 l/m 2,3 km/h (1 Bft) W 270 -2,3 C 9,8 C 10,1 km/h (2 Bft)
21.02.2015 13:55 7,9 C 1,0 C 47 % 47 % 1002,8 hPa 0,0 l/m 3,4 km/h (1 Bft) W-SW 247 -2,7 C 9,7 C 6,3 km/h (2 Bft)
21.02.2015 14:00 7,6 C 1,0 C 46 % 46 % 1002,8 hPa 0,0 l/m 4,0 km/h (1 Bft) S 180 -3,3 C 9,3 C 3,9 km/h (1 Bft)
21.02.2015 14:05 8,5 C 1,0 C 47 % 47 % 1002,8 hPa 0,0 l/m 3,2 km/h (1 Bft) S 180 -2,2 C 9,3 C 2,4 km/h (1 Bft)
21.02.2015 14:10 9,0 C 1,0 C 46 % 46 % 1002,8 hPa 0,0 l/m 3,2 km/h (1 Bft) SW 225 -2,0 C 10,3 C 4,7 km/h (1 Bft)
21.02.2015 14:15 9,6 C 1,0 C 46 % 46 % 1002,8 hPa 0,0 l/m 3,9 km/h (1 Bft) W 270 -1,4 C 11,0 C 4,3 km/h (1 Bft)
21.02.2015 14:20 8,5 C 1,0 C 46 % 46 % 1002,8 hPa 0,0 l/m 3,9 km/h (1 Bft) SW 225 -2,4 C 11,0 C 3,5 km/h (1 Bft)
21.02.2015 14:25 8,1 C 1,0 C 46 % 46 % 1002,8 hPa 0,0 l/m 3,9 km/h (1 Bft) S-SW 202 -2,8 C 10,5 C 3,1 km/h (1 Bft)
21.02.2015 14:30 7,9 C 1,0 C 46 % 46 % 1002,8 hPa 0,0 l/m 3,2 km/h (1 Bft) W-SW 247 -3,0 C 10,0 C 4,7 km/h (1 Bft)
21.02.2015 14:35 7,9 C 1,0 C 46 % 46 % 1002,9 hPa 0,0 l/m 2,7 km/h (1 Bft) W-SW 247 -3,0 C 9,7 C 2,3 km/h (1 Bft)
21.02.2015 14:40 8,0 C 1,0 C 46 % 46 % 1002,9 hPa 0,0 l/m 1,9 km/h (1 Bft) W-SW 247 -2,9 C 9,8 C 3,1 km/h (1 Bft)
21.02.2015 14:45 7,6 C 1,0 C 47 % 47 % 1002,9 hPa 0,0 l/m 2,3 km/h (1 Bft) W 270 -3,0 C 9,6 C 3,9 km/h (1 Bft)
21.02.2015 14:50 7,5 C 1,0 C 47 % 47 % 1002,9 hPa 0,0 l/m 3,9 km/h (1 Bft) W 270 -3,1 C 9,0 C 14,8 km/h (3 Bft)
21.02.2015 14:55 7,1 C 0,9 C 47 % 47 % 1003,1 hPa 0,0 l/m 5,1 km/h (1 Bft) W-SW 247 -3,4 C 8,0 C 10,8 km/h (2 Bft)
21.02.2015 15:00 6,5 C 0,9 C 48 % 48 % 1003,1 hPa 0,0 l/m 6,9 km/h (2 Bft) W 270 -3,7 C 6,2 C 6,4 km/h (2 Bft)
21.02.2015 15:05 6,4 C 0,9 C 48 % 48 % 1003,1 hPa 0,0 l/m 6,1 km/h (2 Bft) W-SW 247 -3,8 C 6,3 C 6,0 km/h (2 Bft)
21.02.2015 15:10 6,3 C 0,9 C 48 % 48 % 1003,1 hPa 0,0 l/m 6,9 km/h (2 Bft) W 270 -3,9 C 5,1 C 17,2 km/h (3 Bft)
21.02.2015 15:15 6,2 C 0,9 C 49 % 49 % 1003,7 hPa 0,0 l/m 7,1 km/h (2 Bft) W-NW 292 -3,7 C 4,8 C 5,5 km/h (1 Bft)
21.02.2015 15:20 6,1 C 0,9 C 49 % 49 % 1003,7 hPa 0,0 l/m 6,3 km/h (2 Bft) W-SW 247 -3,8 C 5,3 C 6,6 km/h (2 Bft)
21.02.2015 15:25 5,9 C 0,9 C 48 % 48 % 1003,7 hPa 0,0 l/m 6,1 km/h (2 Bft) W-SW 247 -4,3 C 5,3 C 9,8 km/h (2 Bft)
21.02.2015 15:30 5,8 C 0,9 C 48 % 48 % 1003,7 hPa 0,0 l/m 6,4 km/h (2 Bft) W 270 -4,3 C 5,1 C 9,3 km/h (2 Bft)
21.02.2015 15:35 5,7 C 0,9 C 47 % 47 % 1004,1 hPa 0,0 l/m 6,9 km/h (2 Bft) W-SW 247 -4,7 C 4,4 C 8,0 km/h (2 Bft)
21.02.2015 15:40 5,5 C 1,0 C 47 % 47 % 1004,1 hPa 0,0 l/m 7,4 km/h (2 Bft) W-SW 247 -4,9 C 3,5 C 6,8 km/h (2 Bft)
21.02.2015 15:45 5,3 C 1,0 C 48 % 48 % 1004,1 hPa 0,0 l/m 7,6 km/h (2 Bft) W-SW 247 -4,8 C 3,0 C 7,7 km/h (2 Bft)
21.02.2015 15:50 5,1 C 1,0 C 48 % 48 % 1004,1 hPa 0,0 l/m 8,2 km/h (2 Bft) W-SW 247 -5,0 C 2,1 C 14,5 km/h (3 Bft)
21.02.2015 15:55 5,1 C 1,0 C 48 % 48 % 1003,9 hPa 0,0 l/m 8,0 km/h (2 Bft) W 270 -5,0 C 1,9 C 7,6 km/h (2 Bft)
21.02.2015 16:00 5,0 C 1,0 C 49 % 49 % 1003,9 hPa 0,0 l/m 6,1 km/h (2 Bft) W 270 -4,8 C 3,9 C 4,7 km/h (1 Bft)
21.02.2015 16:05 5,0 C 1,0 C 49 % 49 % 1003,9 hPa 0,0 l/m 5,3 km/h (1 Bft) SW 225 -4,8 C 4,1 C 3,4 km/h (1 Bft)
21.02.2015 16:10 4,8 C 1,0 C 49 % 49 % 1003,9 hPa 0,0 l/m 4,2 km/h (1 Bft) W 270 -5,0 C 4,6 C 5,3 km/h (1 Bft)
21.02.2015 16:15 4,7 C 1,0 C 50 % 50 % 1004,2 hPa 0,0 l/m 3,4 km/h (1 Bft) W-SW 247 -4,8 C 4,8 C 2,4 km/h (1 Bft)
21.02.2015 16:20 4,6 C 1,0 C 52 % 52 % 1004,2 hPa 0,0 l/m 4,8 km/h (1 Bft) SW 225 -4,4 C 3,9 C 7,2 km/h (2 Bft)
21.02.2015 16:25 4,4 C 1,0 C 53 % 53 % 1004,2 hPa 0,0 l/m 6,3 km/h (2 Bft) W-SW 247 -4,3 C 3,2 C 8,7 km/h (2 Bft)
21.02.2015 16:30 4,2 C 1,0 C 54 % 54 % 1004,2 hPa 0,0 l/m 7,1 km/h (2 Bft) W 270 -4,3 C 1,8 C 17,5 km/h (3 Bft)
21.02.2015 16:35 4,1 C 1,0 C 54 % 54 % 1004,6 hPa 0,0 l/m 6,9 km/h (2 Bft) W 270 -4,4 C 2,0 C 7,9 km/h (2 Bft)
21.02.2015 16:40 3,9 C 1,0 C 55 % 55 % 1004,6 hPa 0,0 l/m 6,0 km/h (2 Bft) W-SW 247 -4,3 C 2,4 C 5,6 km/h (1 Bft)
21.02.2015 16:45 4,0 C 1,0 C 55 % 55 % 1004,6 hPa 0,0 l/m 6,9 km/h (2 Bft) W-SW 247 -4,2 C 1,5 C 10,1 km/h (2 Bft)
21.02.2015 16:50 3,8 C 1,0 C 56 % 56 % 1004,6 hPa 0,0 l/m 6,6 km/h (2 Bft) W-SW 247 -4,2 C 1,7 C 4,5 km/h (1 Bft)
21.02.2015 16:55 3,6 C 1,0 C 56 % 56 % 1004,8 hPa 0,0 l/m 5,1 km/h (1 Bft) W-SW 247 -4,3 C 2,2 C 6,8 km/h (2 Bft)
21.02.2015 17:00 3,5 C 1,0 C 56 % 56 % 1004,8 hPa 0,0 l/m 3,9 km/h (1 Bft) W 270 -4,4 C 2,7 C 3,9 km/h (1 Bft)
21.02.2015 17:05 3,4 C 1,0 C 57 % 57 % 1004,8 hPa 0,0 l/m 4,0 km/h (1 Bft) NW 315 -4,3 C 2,5 C 2,4 km/h (1 Bft)
21.02.2015 17:10 3,2 C 1,0 C 57 % 57 % 1004,8 hPa 0,0 l/m 4,2 km/h (1 Bft) W 270 -4,5 C 2,2 C 3,2 km/h (1 Bft)
21.02.2015 17:15 3,2 C 1,0 C 58 % 58 % 1004,4 hPa 0,0 l/m 4,5 km/h (1 Bft) W-SW 247 -4,3 C 1,8 C 9,0 km/h (2 Bft)
21.02.2015 17:20 3,0 C 0,9 C 59 % 59 % 1004,4 hPa 0,0 l/m 5,1 km/h (1 Bft) W-SW 247 -4,2 C 1,3 C 9,2 km/h (2 Bft)
21.02.2015 17:25 2,9 C 0,9 C 59 % 59 % 1004,4 hPa 0,0 l/m 5,3 km/h (1 Bft) S-SW 202 -4,3 C 1,1 C 6,6 km/h (2 Bft)
21.02.2015 17:30 2,7 C 0,9 C 61 % 61 % 1004,4 hPa 0,0 l/m 5,0 km/h (1 Bft) SW 225 -4,1 C 0,9 C 5,0 km/h (1 Bft)
21.02.2015 17:35 2,5 C 0,9 C 62 % 62 % 1004,8 hPa 0,0 l/m 4,3 km/h (1 Bft) W-SW 247 -4,0 C 1,0 C 2,6 km/h (1 Bft)
21.02.2015 17:40 2,3 C 0,9 C 63 % 63 % 1004,8 hPa 0,0 l/m 3,7 km/h (1 Bft) W-SW 247 -4,0 C 1,1 C 3,7 km/h (1 Bft)
21.02.2015 17:45 2,2 C 0,9 C 64 % 64 % 1004,8 hPa 0,0 l/m 3,5 km/h (1 Bft) W-NW 292 -3,9 C 1,0 C 4,0 km/h (1 Bft)
21.02.2015 17:50 2,3 C 0,9 C 65 % 65 % 1004,8 hPa 0,0 l/m 3,9 km/h (1 Bft) S 180 -3,6 C 0,6 C 5,0 km/h (1 Bft)
21.02.2015 17:55 2,2 C 0,9 C 65 % 65 % 1005,1 hPa 0,0 l/m 4,0 km/h (1 Bft) S 180 -3,7 C 0,4 C 4,8 km/h (1 Bft)
21.02.2015 18:00 2,2 C 0,9 C 65 % 65 % 1005,1 hPa 0,0 l/m 4,2 km/h (1 Bft) SW 225 -3,7 C 0,2 C 4,5 km/h (1 Bft)
21.02.2015 18:05 2,1 C 0,9 C 65 % 65 % 1005,1 hPa 0,0 l/m 4,0 km/h (1 Bft) W-SW 247 -3,8 C 0,3 C 3,9 km/h (1 Bft)
21.02.2015 18:10 1,8 C 0,9 C 65 % 65 % 1005,1 hPa 0,0 l/m 3,1 km/h (1 Bft) SW 225 -4,1 C 0,6 C 3,1 km/h (1 Bft)
21.02.2015 18:15 1,7 C 0,9 C 65 % 65 % 1005,2 hPa 0,0 l/m 2,4 km/h (1 Bft) S-SW 202 -4,2 C 0,9 C 0,0 km/h (0 Bft)
21.02.2015 18:20 1,6 C 0,9 C 65 % 65 % 1005,2 hPa 0,0 l/m 2,1 km/h (1 Bft) SW 225 -4,3 C 0,5 C 1,8 km/h (1 Bft)
21.02.2015 18:25 1,5 C 0,9 C 65 % 65 % 1005,2 hPa 0,0 l/m 2,1 km/h (1 Bft) S 180 -4,3 C 0,5 C 3,5 km/h (1 Bft)
21.02.2015 18:30 1,1 C 0,9 C 66 % 66 % 1005,2 hPa 0,0 l/m 1,8 km/h (1 Bft) S-SO 157 -4,5 C 0,2 C 0,0 km/h (0 Bft)
21.02.2015 18:35 0,8 C 0,9 C 66 % 66 % 1005,6 hPa 0,0 l/m 0,8 km/h (0 Bft) S-SO 157 -4,8 C -0,1 C 0,0 km/h (0 Bft)
21.02.2015 18:40 0,6 C 0,9 C 67 % 67 % 1005,6 hPa 0,0 l/m 0,5 km/h (0 Bft) S-SO 157 -4,8 C -0,5 C 2,3 km/h (1 Bft)
21.02.2015 18:45 0,5 C 0,9 C 68 % 68 % 1005,6 hPa 0,0 l/m 1,0 km/h (0 Bft) S-SO 157 -4,7 C -0,7 C 2,3 km/h (1 Bft)
21.02.2015 18:50 0,4 C 0,9 C 68 % 68 % 1005,6 hPa 0,0 l/m 1,0 km/h (0 Bft) S-SO 157 -4,8 C -0,9 C 1,8 km/h (1 Bft)
21.02.2015 18:55 -0,2 C 0,9 C 68 % 68 % 1005,4 hPa 0,0 l/m 0,3 km/h (0 Bft) S-SO 157 -5,4 C -1,1 C 0,0 km/h (0 Bft)
21.02.2015 19:00 -0,3 C 1,0 C 68 % 68 % 1005,4 hPa 0,0 l/m 0,2 km/h (0 Bft) S-SO 157 -5,5 C -1,6 C 1,9 km/h (1 Bft)
21.02.2015 19:05 -0,2 C 1,0 C 69 % 69 % 1005,4 hPa 0,0 l/m 0,3 km/h (0 Bft) S-SO 157 -5,2 C -1,7 C 0,0 km/h (0 Bft)
21.02.2015 19:10 -0,3 C 1,0 C 69 % 69 % 1005,4 hPa 0,0 l/m 0,3 km/h (0 Bft) S-SO 157 -5,3 C -1,8 C 0,0 km/h (0 Bft)
21.02.2015 19:15 -0,6 C 1,0 C 69 % 69 % 1005,4 hPa 0,0 l/m 0,2 km/h (0 Bft) S-SO 157 -5,6 C -1,8 C 0,0 km/h (0 Bft)
21.02.2015 19:20 -0,9 C 1,0 C 69 % 69 % 1005,4 hPa 0,0 l/m 0,2 km/h (0 Bft) SW 225 -5,9 C -2,2 C 2,7 km/h (1 Bft)
21.02.2015 19:25 -1,2 C 1,0 C 69 % 69 % 1005,4 hPa 0,0 l/m 0,2 km/h (0 Bft) S-SW 202 -6,1 C -2,5 C 0,0 km/h (0 Bft)
21.02.2015 19:30 -1,8 C 1,0 C 69 % 69 % 1005,4 hPa 0,0 l/m 0,2 km/h (0 Bft) SW 225 -6,7 C -2,9 C 0,0 km/h (0 Bft)
21.02.2015 19:35 -2,1 C 1,0 C 69 % 69 % 1005,3 hPa 0,0 l/m 0,0 km/h (0 Bft) SW 225 -7,0 C -3,2 C 0,0 km/h (0 Bft)
21.02.2015 19:40 -2,3 C 0,9 C 70 % 70 % 1005,3 hPa 0,0 l/m 0,0 km/h (0 Bft) SW 225 -7,0 C -3,7 C 0,0 km/h (0 Bft)
21.02.2015 19:45 -2,3 C 0,9 C 72 % 72 % 1005,3 hPa 0,0 l/m 0,5 km/h (0 Bft) W-SW 247 -6,6 C -3,7 C 0,0 km/h (0 Bft)
21.02.2015 19:50 -1,6 C 0,9 C 73 % 73 % 1005,3 hPa 0,0 l/m 1,0 km/h (0 Bft) SW 225 -5,8 C -3,5 C 0,0 km/h (0 Bft)
21.02.2015 19:55 -1,6 C 1,0 C 73 % 73 % 1005,4 hPa 0,0 l/m 0,5 km/h (0 Bft) S 180 -5,8 C -3,3 C 0,0 km/h (0 Bft)
21.02.2015 20:00 -2,1 C 1,0 C 72 % 72 % 1005,4 hPa 0,0 l/m 0,0 km/h (0 Bft) S 180 -6,5 C -3,1 C 0,0 km/h (0 Bft)
21.02.2015 20:05 -2,2 C 1,0 C 73 % 73 % 1005,4 hPa 0,0 l/m 0,0 km/h (0 Bft) S 180 -6,4 C -3,2 C 0,0 km/h (0 Bft)
21.02.2015 20:10 -2,4 C 1,0 C 72 % 72 % 1005,4 hPa 0,0 l/m 0,0 km/h (0 Bft) S 180 -6,7 C -3,3 C 0,0 km/h (0 Bft)
21.02.2015 20:15 -2,2 C 1,0 C 73 % 73 % 1005,2 hPa 0,0 l/m 0,0 km/h (0 Bft) S 180 -6,4 C -3,2 C 0,0 km/h (0 Bft)
21.02.2015 20:20 -1,2 C 1,0 C 74 % 74 % 1005,2 hPa 0,0 l/m 0,3 km/h (0 Bft) W-SW 247 -5,2 C -2,7 C 2,6 km/h (1 Bft)
21.02.2015 20:25 -1,8 C 1,0 C 74 % 74 % 1005,2 hPa 0,0 l/m 0,3 km/h (0 Bft) S-SW 202 -5,8 C -2,4 C 0,0 km/h (0 Bft)
21.02.2015 20:30 -1,6 C 1,0 C 74 % 74 % 1005,2 hPa 0,0 l/m 0,3 km/h (0 Bft) W 270 -5,6 C -2,4 C 1,6 km/h (1 Bft)
21.02.2015 20:35 -1,6 C 1,0 C 74 % 74 % 1005,3 hPa 0,0 l/m 0,3 km/h (0 Bft) W-SW 247 -5,6 C -2,2 C 0,0 km/h (0 Bft)
21.02.2015 20:40 -1,3 C 1,0 C 74 % 74 % 1005,3 hPa 0,0 l/m 0,5 km/h (0 Bft) N-NO 22 -5,3 C -2,0 C 1,8 km/h (1 Bft)
21.02.2015 20:45 -1,2 C 1,0 C 75 % 75 % 1005,3 hPa 0,0 l/m 0,5 km/h (0 Bft) N-NO 22 -5,0 C -1,9 C 0,0 km/h (0 Bft)
21.02.2015 20:50 -1,2 C 1,0 C 74 % 74 % 1005,3 hPa 0,0 l/m 0,5 km/h (0 Bft) NO 45 -5,2 C -1,7 C 0,0 km/h (0 Bft)
21.02.2015 20:55 -1,1 C 1,0 C 75 % 75 % 1005,5 hPa 0,0 l/m 0,0 km/h (0 Bft) N-NO 22 -5,0 C -1,7 C 0,0 km/h (0 Bft)
21.02.2015 21:00 -1,1 C 1,0 C 74 % 74 % 1005,5 hPa 0,0 l/m 0,0 km/h (0 Bft) NO 45 -5,1 C -1,6 C 0,0 km/h (0 Bft)
21.02.2015 21:05 -0,9 C 1,0 C 74 % 74 % 1005,5 hPa 0,0 l/m 0,6 km/h (0 Bft) SO 135 -4,9 C -1,6 C 4,2 km/h (1 Bft)
21.02.2015 21:10 -0,5 C 1,0 C 75 % 75 % 1005,5 hPa 0,0 l/m 2,6 km/h (1 Bft) S-SO 157 -4,4 C -1,3 C 2,4 km/h (1 Bft)
21.02.2015 21:15 -0,5 C 1,0 C 75 % 75 % 1005,6 hPa 0,0 l/m 2,3 km/h (1 Bft) SO 135 -4,4 C -0,9 C 0,0 km/h (0 Bft)
21.02.2015 21:20 -0,6 C 1,0 C 75 % 75 % 1005,6 hPa 0,0 l/m 0,8 km/h (0 Bft) W-NW 292 -4,5 C -0,9 C 0,0 km/h (0 Bft)
21.02.2015 21:25 -0,8 C 1,0 C 75 % 75 % 1005,6 hPa 0,0 l/m 0,5 km/h (0 Bft) W-SW 247 -4,7 C -1,0 C 0,0 km/h (0 Bft)
21.02.2015 21:30 -0,6 C 1,0 C 75 % 75 % 1005,6 hPa 0,0 l/m 0,3 km/h (0 Bft) SO 135 -4,5 C -0,9 C 1,6 km/h (1 Bft)
21.02.2015 21:35 -0,6 C 1,0 C 75 % 75 % 1005,6 hPa 0,0 l/m 0,5 km/h (0 Bft) O-NO 67 -4,5 C -0,9 C 0,0 km/h (0 Bft)
21.02.2015 21:40 -0,7 C 1,0 C 75 % 75 % 1005,6 hPa 0,0 l/m 0,2 km/h (0 Bft) O-NO 67 -4,6 C -1,0 C 0,0 km/h (0 Bft)
21.02.2015 21:45 -0,7 C 1,0 C 74 % 74 % 1005,6 hPa 0,0 l/m 0,0 km/h (0 Bft) O-NO 67 -4,7 C -1,0 C 0,0 km/h (0 Bft)
21.02.2015 21:50 -0,7 C 1,0 C 74 % 74 % 1005,6 hPa 0,0 l/m 0,0 km/h (0 Bft) O-NO 67 -4,7 C -1,0 C 0,0 km/h (0 Bft)
21.02.2015 21:55 -0,7 C 1,0 C 74 % 74 % 1005,5 hPa 0,0 l/m 0,0 km/h (0 Bft) O-NO 67 -4,7 C -1,0 C 0,0 km/h (0 Bft)
21.02.2015 22:00 -0,6 C 1,0 C 74 % 74 % 1005,5 hPa 0,0 l/m 0,0 km/h (0 Bft) O-NO 67 -4,6 C -1,0 C 0,0 km/h (0 Bft)
21.02.2015 22:05 -0,3 C 1,0 C 74 % 74 % 1005,5 hPa 0,0 l/m 0,0 km/h (0 Bft) O 90 -4,4 C -0,9 C 0,0 km/h (0 Bft)
21.02.2015 22:10 -0,2 C 0,9 C 74 % 74 % 1005,5 hPa 0,0 l/m 0,0 km/h (0 Bft) SO 135 -4,3 C -0,7 C 0,0 km/h (0 Bft)
21.02.2015 22:15 -0,4 C 0,9 C 74 % 74 % 1005,8 hPa 0,0 l/m 0,0 km/h (0 Bft) O-SO 112 -4,5 C -0,7 C 0,0 km/h (0 Bft)
21.02.2015 22:20 -0,6 C 0,9 C 75 % 75 % 1005,8 hPa 0,0 l/m 0,0 km/h (0 Bft) O-SO 112 -4,5 C -0,9 C 0,0 km/h (0 Bft)
21.02.2015 22:25 -0,6 C 1,0 C 74 % 74 % 1005,8 hPa 0,0 l/m 0,0 km/h (0 Bft) O-SO 112 -4,6 C -0,9 C 0,0 km/h (0 Bft)
21.02.2015 22:30 -0,5 C 1,0 C 75 % 75 % 1005,8 hPa 0,0 l/m 0,2 km/h (0 Bft) O-NO 67 -4,4 C -1,0 C 0,0 km/h (0 Bft)
21.02.2015 22:35 -0,5 C 1,0 C 75 % 75 % 1005,9 hPa 0,0 l/m 0,2 km/h (0 Bft) O-NO 67 -4,4 C -0,9 C 0,0 km/h (0 Bft)
21.02.2015 22:40 -0,4 C 0,9 C 75 % 75 % 1005,9 hPa 0,0 l/m 0,0 km/h (0 Bft) O-NO 67 -4,3 C -0,9 C 0,0 km/h (0 Bft)
21.02.2015 22:45 -0,3 C 0,9 C 75 % 75 % 1005,9 hPa 0,0 l/m 0,0 km/h (0 Bft) O-NO 67 -4,2 C -0,9 C 0,0 km/h (0 Bft)
21.02.2015 22:50 -0,2 C 0,9 C 75 % 75 % 1005,9 hPa 0,0 l/m 0,0 km/h (0 Bft) O-SO 112 -4,1 C -0,7 C 0,0 km/h (0 Bft)
21.02.2015 22:55 -0,1 C 0,9 C 75 % 75 % 1005,9 hPa 0,0 l/m 0,0 km/h (0 Bft) O-SO 112 -4,0 C -0,7 C 0,0 km/h (0 Bft)
21.02.2015 23:00 -0,1 C 0,9 C 75 % 75 % 1005,9 hPa 0,0 l/m 0,2 km/h (0 Bft) O-NO 67 -4,0 C -0,6 C 0,0 km/h (0 Bft)
21.02.2015 23:05 -0,1 C 0,9 C 76 % 76 % 1005,9 hPa 0,0 l/m 0,2 km/h (0 Bft) O-NO 67 -3,8 C -0,6 C 0,0 km/h (0 Bft)
21.02.2015 23:10 -0,1 C 0,9 C 76 % 76 % 1005,9 hPa 0,0 l/m 0,0 km/h (0 Bft) O-NO 67 -3,8 C -0,5 C 0,0 km/h (0 Bft)
21.02.2015 23:15 -0,1 C 0,9 C 76 % 76 % 1006,0 hPa 0,0 l/m 0,0 km/h (0 Bft) O-NO 67 -3,8 C -0,4 C 0,0 km/h (0 Bft)
21.02.2015 23:20 -0,1 C 0,9 C 76 % 76 % 1006,0 hPa 0,0 l/m 0,0 km/h (0 Bft) N-NO 22 -3,8 C -0,3 C 0,0 km/h (0 Bft)
21.02.2015 23:25 -0,1 C 0,9 C 76 % 76 % 1006,0 hPa 0,0 l/m 0,0 km/h (0 Bft) N-NO 22 -3,8 C -0,4 C 0,0 km/h (0 Bft)
21.02.2015 23:30 -0,1 C 0,9 C 76 % 76 % 1006,0 hPa 0,0 l/m 0,0 km/h (0 Bft) N-NO 22 -3,8 C -0,6 C 0,0 km/h (0 Bft)
21.02.2015 23:35 -0,2 C 0,9 C 76 % 76 % 1006,1 hPa 0,0 l/m 0,0 km/h (0 Bft) N-NO 22 -3,9 C -0,7 C 0,0 km/h (0 Bft)
21.02.2015 23:40 -0,2 C 0,9 C 76 % 76 % 1006,1 hPa 0,0 l/m 0,0 km/h (0 Bft) O 90 -3,9 C -0,9 C 0,0 km/h (0 Bft)
21.02.2015 23:45 -0,1 C 0,9 C 76 % 76 % 1006,1 hPa 0,0 l/m 0,0 km/h (0 Bft) O-SO 112 -3,8 C -0,9 C 0,0 km/h (0 Bft)
21.02.2015 23:50 -0,1 C 0,9 C 76 % 76 % 1006,1 hPa 0,0 l/m 0,0 km/h (0 Bft) NO 45 -3,8 C -0,8 C 0,0 km/h (0 Bft)
21.02.2015 23:55 -0,1 C 0,9 C 76 % 76 % 1005,9 hPa 0,0 l/m 0,0 km/h (0 Bft) NO 45 -3,8 C -0,9 C 0,0 km/h (0 Bft)
_ Min-Zeit 06:55 23:55 14:40 14:40 14:30 - 23:55 - - 06:55 07:00 23:55
Minimum _ -7,4 C 0,9 C 46 % 46 % 1002,8 hPa - 0,0 km/h (0 Bft) - - -11,9 C -8,1 C 0,0 km/h (0 Bft)
_ Max-Zeit 14:15 22:35 23:55 23:55 00:10 23:55 15:50 - - 11:00 14:20 16:30
Maximum _ 9,6 C 1,0 C 76 % 76 % 1010,4 hPa 0,0 l/m 8,2 km/h
W-SW (2 Bft)
- - -1,1 C 11,0 C 17,5 km/h
W (3 Bft)
Durchschnitt _ 0,2 C 1,0 C 62 % 62 % 1006,0 hPa #0,0 l/m 1,6 km/h (1 Bft) W-SW - -6,3 C -0,2 C 2,1 km/h (1 Bft)